Hauptseite
METAR-TAF:

METAR-TAF

Flughäfen :

Flughafen Port Harcourt

Port Harcourt, Nigeria

Breite: 04-51N, Länge: 007-01E, Höhe: 18 m

Beobachtung

Neuester Wetterbericht von vor 34 Minuten, um 06:00 UTC
Windstille
Temperatur 24°C
Luftfeuchtigkeit 94%
Luftdruck 1011 hPa
Sichtweite: 8000 m
Aufgelockert bewölkt in der Höhe von 800 ft

METAR: DNPO 250600Z 00000KT 8000 SCT008 24/23 Q1011 NOSIG

Zeit: 07:34 (06:34 UTC)


TAF: fehlend

Wetterbeobachtungen und Prognosen von mehr als 4000 Flughäfen (METAR und TAF Bericht).

Die verfügbaren Stationen werden durch gelbe und rote Markierungen auf der Karte dargestellt.

Führen Sie die Maus auf sie, um den Namen der Station zu sehen.

Darauf klicken, um die Beobachtung von Wetterbeobachtungen und Prognosen zu sehen.

Um die Karte zu ändern : klicken Sie auf den grünen Tasten mit einem schwarzen Kreuz Zum Vergrößern, auf den grünen Button mit einem Gedankenstrich zu verkleinern, oder auf die grünen Pfeile für benachbarte Karten.


METAR-TAF: